Time;durP1;ratioP1;P1;durP2;ratioP2;P2;SDS_P1;SDS_P2;PMS_P1;PMS_P2;Temp;Humidity;BMP_temperature;BMP_pressure;BME280_temperature;BME280_humidity;BME280_pressure;Samples;Min_cycle;Max_cycle;Signal;HPM_P1;HPM_P2
2022/04/24 00:00:34;;;;;;;;;;;9.00;97.30;;;;;;5015905;28;19917;-65
2022/04/24 00:02:59;;;;;;;;;;;8.90;97.30;;;;;;5015816;28;19918;-65
2022/04/24 00:05:25;;;;;;;;;;;8.90;97.30;;;;;;5018184;28;19920;-65
2022/04/24 00:07:50;;;;;;;;;;;8.80;97.40;;;;;;5017381;28;19918;-65
2022/04/24 00:10:16;;;;;;;;;;;8.80;97.40;;;;;;5018123;28;20385;-65
2022/04/24 00:12:41;;;;;;;;;;;8.80;97.50;;;;;;5018344;28;20267;-65
2022/04/24 00:15:07;;;;;;;;;;;8.80;97.50;;;;;;5018075;28;20287;-65
2022/04/24 00:17:32;;;;;;;;;;;8.80;97.40;;;;;;5018485;28;19913;-66
2022/04/24 00:19:58;;;;;;;;;;;8.70;97.50;;;;;;5015126;28;19928;-66
2022/04/24 00:22:23;;;;;;;;;;;8.80;97.60;;;;;;5018196;28;19913;-65
2022/04/24 00:24:49;;;;;;;;;;;8.70;97.60;;;;;;5018696;28;19913;-66
2022/04/24 00:27:14;;;;;;;;;;;8.70;97.60;;;;;;5016021;28;19940;-65
2022/04/24 00:29:40;;;;;;;;;;;8.70;97.60;;;;;;5010444;28;19929;-66
2022/04/24 00:32:05;;;;;;;;;;;8.60;97.70;;;;;;5012337;28;19921;-66
2022/04/24 00:34:31;;;;;;;;;;;8.60;97.70;;;;;;5012903;28;20267;-65
2022/04/24 00:36:57;;;;;;;;;;;8.60;97.70;;;;;;5012928;28;19999;-66
2022/04/24 00:39:23;;;;;;;;;;;8.60;97.80;;;;;;5018762;28;20012;-66
2022/04/24 00:41:49;;;;;;;;;;;8.50;97.80;;;;;;5016282;28;19921;-66
2022/04/24 00:44:15;;;;;;;;;;;8.50;97.90;;;;;;5017637;28;20340;-65
2022/04/24 00:46:51;;;;;;;;;;;8.40;97.90;;;;;;5017389;28;19917;-66
2022/04/24 00:49:16;;;;;;;;;;;8.40;98.10;;;;;;5020509;28;19921;-65
2022/04/24 00:51:43;;;;;;;;;;;8.40;98.20;;;;;;5018204;28;19917;-65
2022/04/24 00:54:10;;;;;;;;;;;8.30;98.10;;;;;;5019194;28;19922;-65
2022/04/24 00:56:36;;;;;;;;;;;8.30;98.20;;;;;;5018104;28;19922;-66
2022/04/24 00:59:03;;;;;;;;;;;8.30;98.30;;;;;;5019376;28;19921;-65
2022/04/24 01:01:29;;;;;;;;;;;8.20;98.30;;;;;;5015207;28;19940;-65
2022/04/24 01:03:59;;;;;;;;;;;8.20;98.40;;;;;;5014433;28;20408;-66
2022/04/24 01:06:26;;;;;;;;;;;8.20;98.50;;;;;;5016199;28;20012;-66
2022/04/24 01:08:51;;;;;;;;;;;8.10;98.40;;;;;;5019145;28;19917;-65
2022/04/24 01:11:17;;;;;;;;;;;8.10;98.60;;;;;;5017550;28;19917;-66
2022/04/24 01:13:42;;;;;;;;;;;8.00;98.80;;;;;;5019256;28;19929;-65
2022/04/24 01:16:08;;;;;;;;;;;7.90;98.80;;;;;;5017481;28;19918;-66
2022/04/24 01:18:33;;;;;;;;;;;7.90;98.90;;;;;;5017555;28;19941;-65
2022/04/24 01:21:05;;;;;;;;;;;7.80;98.90;;;;;;5019243;28;19914;-65
2022/04/24 01:23:31;;;;;;;;;;;7.80;99.10;;;;;;5017499;28;19924;-65
2022/04/24 01:25:57;;;;;;;;;;;7.70;99.10;;;;;;5017525;28;20269;-65
2022/04/24 01:28:23;;;;;;;;;;;7.70;99.10;;;;;;5019680;28;19924;-66
2022/04/24 01:30:48;;;;;;;;;;;7.70;99.30;;;;;;5020383;28;19918;-65
2022/04/24 01:33:14;;;;;;;;;;;7.60;99.30;;;;;;5017663;28;19920;-65
2022/04/24 01:35:39;;;;;;;;;;;7.60;99.30;;;;;;5019594;28;19917;-65
2022/04/24 01:38:04;;;;;;;;;;;7.50;99.40;;;;;;5017811;28;19940;-65
2022/04/24 01:40:30;;;;;;;;;;;7.50;99.60;;;;;;5016749;28;20120;-65
2022/04/24 01:42:55;;;;;;;;;;;7.50;99.70;;;;;;5018463;28;19948;-65
2022/04/24 01:45:21;;;;;;;;;;;7.40;99.70;;;;;;5017283;28;19921;-65
2022/04/24 01:47:46;;;;;;;;;;;7.40;99.70;;;;;;5017020;28;19924;-65
2022/04/24 01:50:11;;;;;;;;;;;7.40;99.80;;;;;;5018671;28;19916;-65
2022/04/24 01:52:37;;;;;;;;;;;7.40;99.90;;;;;;5014944;28;20027;-65
2022/04/24 01:55:03;;;;;;;;;;;7.30;99.90;;;;;;5016192;28;20008;-65
2022/04/24 01:57:28;;;;;;;;;;;7.30;99.90;;;;;;5018116;28;20353;-65
2022/04/24 01:59:53;;;;;;;;;;;7.30;99.90;;;;;;5018377;28;19924;-66
2022/04/24 02:02:19;;;;;;;;;;;7.30;99.90;;;;;;5015998;28;19913;-65
2022/04/24 02:04:44;;;;;;;;;;;7.30;99.90;;;;;;5015339;28;19928;-65
2022/04/24 02:07:11;;;;;;;;;;;7.20;99.90;;;;;;5018768;28;20000;-65
2022/04/24 02:09:38;;;;;;;;;;;7.20;99.90;;;;;;5018937;28;19923;-66
2022/04/24 02:12:04;;;;;;;;;;;7.20;99.90;;;;;;5015679;28;19921;-65
2022/04/24 02:14:30;;;;;;;;;;;7.10;99.90;;;;;;5017596;28;20320;-65
2022/04/24 02:16:55;;;;;;;;;;;7.00;99.90;;;;;;5013569;28;19988;-65
2022/04/24 02:19:21;;;;;;;;;;;7.00;99.90;;;;;;5014576;28;19921;-65
2022/04/24 02:21:46;;;;;;;;;;;7.00;99.90;;;;;;5017937;28;19940;-65
2022/04/24 02:24:12;;;;;;;;;;;7.00;99.90;;;;;;5017277;28;20008;-65
2022/04/24 02:26:37;;;;;;;;;;;6.90;99.90;;;;;;5017759;28;19928;-65
2022/04/24 02:29:03;;;;;;;;;;;6.90;99.90;;;;;;5014090;28;19917;-65
2022/04/24 02:31:28;;;;;;;;;;;6.80;99.90;;;;;;5018274;28;19945;-65
2022/04/24 02:33:54;;;;;;;;;;;6.80;99.90;;;;;;5017536;28;19913;-65
2022/04/24 02:36:19;;;;;;;;;;;6.80;99.90;;;;;;5018623;28;19925;-65
2022/04/24 02:38:45;;;;;;;;;;;6.80;99.90;;;;;;5014867;28;20205;-65
2022/04/24 02:41:10;;;;;;;;;;;6.70;99.90;;;;;;5018790;28;19935;-65
2022/04/24 02:43:36;;;;;;;;;;;6.70;99.90;;;;;;5016106;28;19913;-65
2022/04/24 02:46:01;;;;;;;;;;;6.70;99.90;;;;;;5017123;28;20405;-65
2022/04/24 02:48:27;;;;;;;;;;;6.70;99.90;;;;;;5018573;28;19913;-65
2022/04/24 02:50:53;;;;;;;;;;;6.70;99.90;;;;;;5018013;28;20363;-65
2022/04/24 02:53:18;;;;;;;;;;;6.60;99.90;;;;;;5015278;28;20017;-65
2022/04/24 02:55:44;;;;;;;;;;;6.60;99.90;;;;;;5014958;28;19918;-65
2022/04/24 02:58:09;;;;;;;;;;;6.60;99.90;;;;;;5017212;28;19963;-65
2022/04/24 03:00:49;;;;;;;;;;;6.60;99.90;;;;;;5014167;28;19949;-65
2022/04/24 03:03:18;;;;;;;;;;;6.50;99.90;;;;;;5013903;28;20436;-65
2022/04/24 03:05:45;;;;;;;;;;;6.50;99.90;;;;;;5016999;28;19920;-65
2022/04/24 03:08:10;;;;;;;;;;;6.50;99.90;;;;;;5017082;28;19995;-65
2022/04/24 03:10:36;;;;;;;;;;;6.40;99.90;;;;;;5015133;28;20434;-65
2022/04/24 03:13:01;;;;;;;;;;;6.40;99.90;;;;;;5014719;28;19925;-65
2022/04/24 03:15:27;;;;;;;;;;;6.40;99.90;;;;;;5016091;28;19924;-66
2022/04/24 03:17:54;;;;;;;;;;;6.40;99.90;;;;;;5016327;28;19923;-65
2022/04/24 03:20:20;;;;;;;;;;;6.40;99.90;;;;;;5016177;28;19917;-65
2022/04/24 03:22:45;;;;;;;;;;;6.40;99.90;;;;;;5015452;28;20331;-65
2022/04/24 03:25:11;;;;;;;;;;;6.30;99.90;;;;;;5016305;28;20333;-65
2022/04/24 03:27:37;;;;;;;;;;;6.30;99.90;;;;;;5014218;28;20293;-66
2022/04/24 03:30:03;;;;;;;;;;;6.30;99.90;;;;;;5016022;28;19917;-65
2022/04/24 03:32:32;;;;;;;;;;;6.30;99.90;;;;;;5015159;28;19914;-65
2022/04/24 03:34:58;;;;;;;;;;;6.30;99.90;;;;;;5016025;28;20354;-65
2022/04/24 03:37:23;;;;;;;;;;;6.30;99.90;;;;;;5015742;28;20416;-65
2022/04/24 03:39:48;;;;;;;;;;;6.20;99.90;;;;;;5017474;28;19921;-65
2022/04/24 03:42:14;;;;;;;;;;;6.20;99.90;;;;;;5015596;28;19913;-65
2022/04/24 03:44:39;;;;;;;;;;;6.20;99.90;;;;;;5015700;28;19917;-65
2022/04/24 03:47:06;;;;;;;;;;;6.20;99.90;;;;;;5015943;28;20263;-65
2022/04/24 03:49:31;;;;;;;;;;;6.20;99.90;;;;;;5017680;28;20008;-65
2022/04/24 03:51:57;;;;;;;;;;;6.20;99.90;;;;;;5018690;28;19997;-65
2022/04/24 03:54:22;;;;;;;;;;;6.20;99.90;;;;;;5016838;28;19924;-65
2022/04/24 03:56:48;;;;;;;;;;;6.30;99.90;;;;;;5017275;28;20310;-65
2022/04/24 03:59:13;;;;;;;;;;;6.20;99.90;;;;;;5015186;28;20390;-65
2022/04/24 04:01:39;;;;;;;;;;;6.20;99.90;;;;;;5016219;28;19920;-65
2022/04/24 04:04:04;;;;;;;;;;;6.10;99.90;;;;;;5015602;28;19972;-65
2022/04/24 04:06:30;;;;;;;;;;;6.10;99.90;;;;;;5020775;28;20358;-65
2022/04/24 04:08:55;;;;;;;;;;;6.10;99.90;;;;;;5019784;28;19961;-65
2022/04/24 04:11:21;;;;;;;;;;;6.10;99.90;;;;;;5018269;28;20579;-65
2022/04/24 04:13:46;;;;;;;;;;;6.00;99.90;;;;;;5019182;28;19920;-65
2022/04/24 04:16:12;;;;;;;;;;;6.00;99.90;;;;;;5020236;28;19924;-65
2022/04/24 04:18:38;;;;;;;;;;;6.10;99.90;;;;;;5017709;28;19955;-65
2022/04/24 04:21:03;;;;;;;;;;;6.20;99.90;;;;;;5020184;28;19917;-65
2022/04/24 04:23:29;;;;;;;;;;;6.30;99.90;;;;;;5019857;28;19925;-65
2022/04/24 04:25:54;;;;;;;;;;;6.50;99.90;;;;;;5017156;28;20413;-65
2022/04/24 04:28:20;;;;;;;;;;;6.60;99.90;;;;;;5020029;28;19955;-65
2022/04/24 04:30:45;;;;;;;;;;;6.80;99.90;;;;;;5017014;28;20020;-65
2022/04/24 04:33:11;;;;;;;;;;;6.90;99.90;;;;;;5016626;28;19918;-65
2022/04/24 04:35:36;;;;;;;;;;;7.10;99.90;;;;;;5019799;28;20401;-65
2022/04/24 04:38:02;;;;;;;;;;;7.20;99.90;;;;;;5019188;28;19917;-65
2022/04/24 04:40:27;;;;;;;;;;;7.30;99.90;;;;;;5019343;28;20413;-65
2022/04/24 04:42:53;;;;;;;;;;;7.50;99.90;;;;;;5018641;28;19917;-65
2022/04/24 04:45:18;;;;;;;;;;;7.60;99.90;;;;;;5018582;28;19917;-65
2022/04/24 04:47:44;;;;;;;;;;;7.60;99.90;;;;;;5021413;28;19914;-65
2022/04/24 04:50:09;;;;;;;;;;;7.70;99.90;;;;;;5019720;28;19924;-65
2022/04/24 04:52:35;;;;;;;;;;;7.80;99.80;;;;;;5018900;28;19940;-65
2022/04/24 04:55:01;;;;;;;;;;;7.80;99.70;;;;;;5018967;28;20004;-65
2022/04/24 04:57:27;;;;;;;;;;;7.80;99.70;;;;;;5021132;28;19984;-65
2022/04/24 04:59:52;;;;;;;;;;;7.90;99.50;;;;;;5018087;28;20385;-65
2022/04/24 05:02:18;;;;;;;;;;;8.00;99.50;;;;;;5018348;28;19913;-65
2022/04/24 05:04:43;;;;;;;;;;;8.10;99.20;;;;;;5019325;28;19925;-65
2022/04/24 05:07:10;;;;;;;;;;;8.30;99.10;;;;;;5021442;28;19910;-65
2022/04/24 05:09:35;;;;;;;;;;;8.30;98.90;;;;;;5017517;28;19921;-65
2022/04/24 05:12:01;;;;;;;;;;;8.40;98.80;;;;;;5018820;28;19943;-65
2022/04/24 05:14:26;;;;;;;;;;;8.60;98.70;;;;;;5017589;28;19917;-65
2022/04/24 05:16:52;;;;;;;;;;;8.70;98.20;;;;;;5016652;28;19933;-65
2022/04/24 05:19:17;;;;;;;;;;;8.80;98.00;;;;;;5016999;28;19925;-65
2022/04/24 05:21:42;;;;;;;;;;;9.00;97.70;;;;;;5017655;28;19914;-65
2022/04/24 05:24:08;;;;;;;;;;;9.00;97.60;;;;;;5016534;28;19928;-65
2022/04/24 05:26:33;;;;;;;;;;;9.30;97.90;;;;;;5017341;28;19913;-65
2022/04/24 05:28:59;;;;;;;;;;;9.50;97.00;;;;;;5018455;28;19914;-65
2022/04/24 05:31:24;;;;;;;;;;;9.50;97.20;;;;;;5016687;28;19921;-65
2022/04/24 05:33:50;;;;;;;;;;;9.40;97.10;;;;;;5014806;28;19921;-65
2022/04/24 05:36:15;;;;;;;;;;;9.10;97.50;;;;;;5017996;28;19976;-65
2022/04/24 05:38:41;;;;;;;;;;;8.80;97.90;;;;;;5018474;28;19920;-65
2022/04/24 05:41:06;;;;;;;;;;;8.50;98.40;;;;;;5019270;28;19913;-65
2022/04/24 05:43:31;;;;;;;;;;;8.30;98.80;;;;;;5018263;28;19920;-65
2022/04/24 05:45:57;;;;;;;;;;;8.20;98.90;;;;;;5019621;28;19953;-66
2022/04/24 05:48:23;;;;;;;;;;;8.20;99.10;;;;;;5017381;28;20415;-65
2022/04/24 05:50:48;;;;;;;;;;;8.20;99.20;;;;;;5018552;28;20278;-65
2022/04/24 05:53:14;;;;;;;;;;;8.20;99.20;;;;;;5018030;28;20444;-65
2022/04/24 05:55:39;;;;;;;;;;;8.30;98.90;;;;;;5017970;28;20306;-65
2022/04/24 05:58:05;;;;;;;;;;;8.20;99.00;;;;;;5017275;28;20278;-65
2022/04/24 06:00:30;;;;;;;;;;;8.30;99.00;;;;;;5019008;28;20009;-65
2022/04/24 06:02:56;;;;;;;;;;;8.30;98.90;;;;;;5018582;28;19972;-65
2022/04/24 06:05:21;;;;;;;;;;;8.40;99.00;;;;;;5015500;28;20414;-65
2022/04/24 06:07:47;;;;;;;;;;;8.50;98.80;;;;;;5018183;28;19917;-65
2022/04/24 06:10:12;;;;;;;;;;;8.60;98.60;;;;;;5019288;28;20015;-65
2022/04/24 06:12:44;;;;;;;;;;;8.70;98.50;;;;;;5020132;28;19918;-65
2022/04/24 06:15:15;;;;;;;;;;;8.80;98.20;;;;;;5019833;28;19913;-65
2022/04/24 06:17:40;;;;;;;;;;;8.70;98.20;;;;;;5019834;28;19914;-65
2022/04/24 06:20:06;;;;;;;;;;;8.60;98.30;;;;;;5018722;28;19974;-64
2022/04/24 06:22:40;;;;;;;;;;;8.60;98.50;;;;;;5014070;28;20403;-65
2022/04/24 06:25:06;;;;;;;;;;;8.70;98.60;;;;;;5017885;28;19924;-65
2022/04/24 06:27:31;;;;;;;;;;;8.70;98.40;;;;;;5016371;28;20000;-64
2022/04/24 06:29:58;;;;;;;;;;;8.80;98.30;;;;;;5018602;28;19918;-65
2022/04/24 06:32:28;;;;;;;;;;;8.70;98.30;;;;;;5014053;28;20359;-65
2022/04/24 06:34:53;;;;;;;;;;;8.70;98.30;;;;;;5016843;28;20004;-64
2022/04/24 06:37:19;;;;;;;;;;;8.70;98.30;;;;;;5018957;28;20366;-64
2022/04/24 06:39:44;;;;;;;;;;;8.70;98.40;;;;;;5010730;28;20379;-64
2022/04/24 06:42:09;;;;;;;;;;;8.70;98.50;;;;;;5013861;28;20433;-64
2022/04/24 06:44:35;;;;;;;;;;;8.70;98.50;;;;;;5015144;28;20367;-65
2022/04/24 06:47:01;;;;;;;;;;;8.70;98.70;;;;;;5011614;28;21949;-61
2022/04/24 06:49:26;;;;;;;;;;;8.80;99.00;;;;;;5015618;28;20303;-64
2022/04/24 06:51:52;;;;;;;;;;;9.10;98.30;;;;;;5013746;28;20207;-65
2022/04/24 06:54:17;;;;;;;;;;;9.20;97.80;;;;;;5015461;28;19949;-65
2022/04/24 06:56:42;;;;;;;;;;;9.10;97.90;;;;;;5014495;28;19917;-65
2022/04/24 06:59:08;;;;;;;;;;;9.10;98.10;;;;;;5014678;28;19980;-65
2022/04/24 07:01:33;;;;;;;;;;;9.20;98.00;;;;;;5015631;28;20430;-66
2022/04/24 07:03:59;;;;;;;;;;;9.30;97.90;;;;;;5018899;28;19916;-66
2022/04/24 07:06:24;;;;;;;;;;;9.30;97.80;;;;;;5013845;28;19913;-65
2022/04/24 07:08:50;;;;;;;;;;;9.50;97.70;;;;;;5010446;28;19967;-66
2022/04/24 07:11:16;;;;;;;;;;;9.70;97.50;;;;;;5010028;28;20390;-66
2022/04/24 07:13:41;;;;;;;;;;;9.90;97.30;;;;;;5013623;28;19919;-66
2022/04/24 07:16:06;;;;;;;;;;;10.10;97.00;;;;;;5012653;28;20004;-66
2022/04/24 07:18:32;;;;;;;;;;;10.30;96.80;;;;;;5015690;28;19918;-66
2022/04/24 07:20:58;;;;;;;;;;;10.40;96.70;;;;;;5013313;28;19925;-66
2022/04/24 07:23:23;;;;;;;;;;;10.50;96.50;;;;;;5015459;28;19917;-67
2022/04/24 07:25:49;;;;;;;;;;;10.70;96.30;;;;;;5016388;28;19923;-66
2022/04/24 07:28:15;;;;;;;;;;;10.80;96.10;;;;;;5016506;28;19917;-66
2022/04/24 07:30:41;;;;;;;;;;;11.00;95.90;;;;;;5016096;28;19949;-67
2022/04/24 07:33:07;;;;;;;;;;;11.00;95.60;;;;;;5015646;28;19949;-66
2022/04/24 07:35:33;;;;;;;;;;;11.00;95.40;;;;;;5016365;28;20406;-66
2022/04/24 07:37:59;;;;;;;;;;;10.80;95.40;;;;;;5017197;28;19959;-66
2022/04/24 07:40:26;;;;;;;;;;;10.70;95.80;;;;;;5019333;28;19917;-66
2022/04/24 07:42:59;;;;;;;;;;;10.60;95.80;;;;;;5019323;28;19918;-66
2022/04/24 07:45:25;;;;;;;;;;;10.60;96.10;;;;;;5017909;28;20352;-66
2022/04/24 07:47:52;;;;;;;;;;;10.70;96.20;;;;;;5017688;28;19909;-66
2022/04/24 07:50:18;;;;;;;;;;;10.80;96.20;;;;;;5017550;28;19921;-66
2022/04/24 07:52:44;;;;;;;;;;;11.00;96.00;;;;;;5018218;28;19989;-66
2022/04/24 07:55:13;;;;;;;;;;;11.00;95.60;;;;;;5019933;28;19952;-67
2022/04/24 07:57:39;;;;;;;;;;;10.90;95.80;;;;;;5016532;28;19922;-67
2022/04/24 08:00:05;;;;;;;;;;;11.00;95.80;;;;;;5019379;28;20548;-67
2022/04/24 08:02:31;;;;;;;;;;;11.10;95.80;;;;;;5018726;28;20004;-68
2022/04/24 08:04:56;;;;;;;;;;;11.10;95.70;;;;;;5019235;28;19988;-68
2022/04/24 08:07:22;;;;;;;;;;;11.20;95.40;;;;;;5021529;28;20346;-68
2022/04/24 08:09:49;;;;;;;;;;;11.20;95.30;;;;;;5021084;28;20389;-66
2022/04/24 08:12:15;;;;;;;;;;;11.20;95.40;;;;;;5020477;28;19917;-62
2022/04/24 08:14:40;;;;;;;;;;;11.40;95.80;;;;;;5019709;28;19924;-63
2022/04/24 08:17:06;;;;;;;;;;;11.70;95.50;;;;;;5018265;28;19929;-66
2022/04/24 08:19:31;;;;;;;;;;;11.90;94.70;;;;;;4987025;28;19921;-66
2022/04/24 08:21:56;;;;;;;;;;;12.00;94.30;;;;;;5019151;28;19920;-66
2022/04/24 08:24:22;;;;;;;;;;;11.90;94.40;;;;;;5016979;28;21563;-66
2022/04/24 08:26:47;;;;;;;;;;;11.90;94.40;;;;;;5019371;28;19913;-69
2022/04/24 08:29:13;;;;;;;;;;;12.00;94.30;;;;;;5021559;28;19924;-70
2022/04/24 08:31:38;;;;;;;;;;;12.00;94.20;;;;;;5020078;28;19952;-68
2022/04/24 08:34:03;;;;;;;;;;;12.10;94.30;;;;;;5020000;28;19917;-71
2022/04/24 08:36:30;;;;;;;;;;;12.20;94.40;;;;;;5021586;28;19940;-73
2022/04/24 08:38:55;;;;;;;;;;;12.40;93.50;;;;;;5020330;28;20066;-73
2022/04/24 08:41:21;;;;;;;;;;;12.30;93.60;;;;;;5020994;28;20040;-73
2022/04/24 08:43:47;;;;;;;;;;;12.30;93.40;;;;;;5018598;28;19913;-73
2022/04/24 08:46:13;;;;;;;;;;;12.30;93.50;;;;;;5019101;28;19918;-72
2022/04/24 08:48:40;;;;;;;;;;;12.30;94.00;;;;;;5020785;28;19920;-72
2022/04/24 08:51:06;;;;;;;;;;;12.50;93.70;;;;;;5020738;28;19913;-72
2022/04/24 08:53:33;;;;;;;;;;;12.60;93.90;;;;;;5021140;28;20013;-72
2022/04/24 08:55:58;;;;;;;;;;;12.70;93.60;;;;;;5021489;28;20024;-73
2022/04/24 08:58:24;;;;;;;;;;;12.70;93.20;;;;;;5021391;28;20016;-75
2022/04/24 09:00:49;;;;;;;;;;;12.70;93.40;;;;;;5021393;28;19920;-69
2022/04/24 09:03:15;;;;;;;;;;;12.70;93.70;;;;;;5019377;28;19922;-70
2022/04/24 09:05:40;;;;;;;;;;;12.90;93.50;;;;;;5021311;28;19917;-69
2022/04/24 09:08:06;;;;;;;;;;;12.80;92.90;;;;;;5020387;28;19917;-68
2022/04/24 09:10:31;;;;;;;;;;;12.80;93.20;;;;;;5021372;28;20283;-67
2022/04/24 09:12:57;;;;;;;;;;;12.80;93.30;;;;;;5020968;28;19910;-66
2022/04/24 09:15:23;;;;;;;;;;;12.80;93.40;;;;;;5021114;28;19971;-69
2022/04/24 09:17:58;;;;;;;;;;;12.90;93.20;;;;;;5017318;28;20382;-66
2022/04/24 09:20:24;;;;;;;;;;;12.90;92.90;;;;;;5015780;28;20370;-66
2022/04/24 09:22:49;;;;;;;;;;;13.00;93.10;;;;;;5016153;28;19924;-68
2022/04/24 09:25:15;;;;;;;;;;;13.10;92.70;;;;;;5019917;28;19914;-71
2022/04/24 09:27:41;;;;;;;;;;;13.20;92.60;;;;;;5019725;28;19917;-70
2022/04/24 09:30:11;;;;;;;;;;;13.10;92.80;;;;;;5019793;28;19921;-69
2022/04/24 09:32:51;;;;;;;;;;;13.30;92.90;;;;;;5019492;28;19936;-71
2022/04/24 09:35:29;;;;;;;;;;;13.40;92.40;;;;;;5016970;28;20003;-71
2022/04/24 09:38:08;;;;;;;;;;;13.50;92.30;;;;;;5019035;28;19913;-68
2022/04/24 09:40:37;;;;;;;;;;;13.70;91.70;;;;;;5018894;28;19917;-75
2022/04/24 09:43:02;;;;;;;;;;;13.50;91.70;;;;;;5017758;28;19921;-70
2022/04/24 09:45:28;;;;;;;;;;;13.40;92.20;;;;;;5020455;28;20328;-69
2022/04/24 09:47:58;;;;;;;;;;;13.30;92.30;;;;;;5018158;28;20366;-71
2022/04/24 09:50:25;;;;;;;;;;;13.20;92.70;;;;;;5015641;28;19917;-73
2022/04/24 09:52:51;;;;;;;;;;;13.20;93.10;;;;;;5018472;28;20393;-70
2022/04/24 09:55:17;;;;;;;;;;;13.30;93.00;;;;;;5019623;28;19914;-71
2022/04/24 09:57:43;;;;;;;;;;;13.50;92.80;;;;;;5019321;28;19929;-69
2022/04/24 10:00:09;;;;;;;;;;;13.80;92.70;;;;;;5018871;28;20749;-71
2022/04/24 10:02:34;;;;;;;;;;;13.90;91.90;;;;;;5019664;28;20003;-69
2022/04/24 10:05:00;;;;;;;;;;;14.10;91.60;;;;;;5016883;28;19917;-71
2022/04/24 10:07:26;;;;;;;;;;;14.20;91.30;;;;;;5019042;28;19913;-71
2022/04/24 10:09:52;;;;;;;;;;;14.30;90.70;;;;;;5020043;28;19913;-68
2022/04/24 10:12:18;;;;;;;;;;;14.20;90.80;;;;;;5019375;28;19917;-70
2022/04/24 10:14:45;;;;;;;;;;;14.10;90.90;;;;;;5017525;28;19935;-68
2022/04/24 10:17:14;;;;;;;;;;;14.10;91.00;;;;;;5018725;28;20193;-69
2022/04/24 10:19:56;;;;;;;;;;;14.00;91.50;;;;;;5017077;28;19923;-68
2022/04/24 10:22:38;;;;;;;;;;;13.90;91.60;;;;;;5015059;28;19968;-68
2022/04/24 10:25:04;;;;;;;;;;;13.80;91.90;;;;;;5014907;28;19916;-67
2022/04/24 10:27:41;;;;;;;;;;;13.70;92.20;;;;;;5018511;28;19963;-68
2022/04/24 10:30:07;;;;;;;;;;;13.70;92.30;;;;;;5016681;28;19991;-68
2022/04/24 10:32:33;;;;;;;;;;;13.80;92.10;;;;;;5016984;28;20335;-69
2022/04/24 10:34:58;;;;;;;;;;;13.80;92.10;;;;;;5016252;28;19921;-68
2022/04/24 10:37:28;;;;;;;;;;;13.80;92.30;;;;;;5018316;28;20329;-69
2022/04/24 10:39:58;;;;;;;;;;;13.80;92.10;;;;;;5014711;28;19921;-68
2022/04/24 10:42:29;;;;;;;;;;;13.80;92.40;;;;;;5011868;28;20353;-68
2022/04/24 10:45:02;;;;;;;;;;;13.80;92.60;;;;;;5014149;28;20419;-67
2022/04/24 10:47:38;;;;;;;;;;;14.00;92.80;;;;;;5014824;28;20055;-68
2022/04/24 10:50:05;;;;;;;;;;;14.10;92.40;;;;;;5013633;28;20421;-67
2022/04/24 10:52:37;;;;;;;;;;;14.10;92.00;;;;;;5013687;28;20389;-67
2022/04/24 10:55:13;;;;;;;;;;;14.20;91.90;;;;;;5012692;28;19918;-67
2022/04/24 10:57:42;;;;;;;;;;;14.20;91.80;;;;;;5014160;28;19939;-65
2022/04/24 11:00:22;;;;;;;;;;;14.40;91.40;;;;;;5015769;28;19979;-65
2022/04/24 11:02:48;;;;;;;;;;;14.50;91.20;;;;;;5014902;28;19920;-65
2022/04/24 11:05:18;;;;;;;;;;;14.70;90.90;;;;;;5017575;28;19913;-65
2022/04/24 11:07:44;;;;;;;;;;;14.90;90.10;;;;;;5016126;28;19918;-66
2022/04/24 11:10:10;;;;;;;;;;;15.00;90.10;;;;;;5018041;28;19920;-65
2022/04/24 11:12:36;;;;;;;;;;;15.00;89.60;;;;;;5015118;28;19919;-65
2022/04/24 11:15:09;;;;;;;;;;;15.00;89.60;;;;;;5014845;28;20182;-66
2022/04/24 11:17:34;;;;;;;;;;;15.00;90.00;;;;;;5012912;28;20522;-65
2022/04/24 11:20:03;;;;;;;;;;;14.80;90.30;;;;;;5018497;28;19992;-65
2022/04/24 11:22:29;;;;;;;;;;;14.70;90.30;;;;;;5014417;28;19975;-69
2022/04/24 11:24:55;;;;;;;;;;;14.60;90.60;;;;;;5011830;28;19937;-68
2022/04/24 11:27:24;;;;;;;;;;;14.60;90.90;;;;;;5017045;28;19960;-68
2022/04/24 11:29:50;;;;;;;;;;;14.50;91.30;;;;;;5016594;28;19917;-68
2022/04/24 11:32:17;;;;;;;;;;;14.60;91.40;;;;;;5011195;28;19919;-68
2022/04/24 11:34:43;;;;;;;;;;;14.60;91.40;;;;;;5016215;28;19921;-68
2022/04/24 11:37:09;;;;;;;;;;;14.70;91.00;;;;;;5013762;28;19921;-68
2022/04/24 11:39:37;;;;;;;;;;;14.90;90.80;;;;;;5015419;28;19917;-68
2022/04/24 11:42:02;;;;;;;;;;;14.90;90.70;;;;;;5013441;28;21760;-68
2022/04/24 11:50:15;;;;;;;;;;;14.90;90.00;;;;;;5011766;28;19920;-67
2022/04/24 11:52:42;;;;;;;;;;;14.90;90.10;;;;;;5016198;28;19913;-68
2022/04/24 11:55:08;;;;;;;;;;;15.00;90.00;;;;;;5015327;28;19917;-68
2022/04/24 11:57:33;;;;;;;;;;;15.10;88.90;;;;;;5017751;28;19922;-67
2022/04/24 11:59:59;;;;;;;;;;;15.10;88.60;;;;;;5015553;28;19928;-68
2022/04/24 12:02:28;;;;;;;;;;;15.20;87.90;;;;;;5014743;28;19913;-67
2022/04/24 12:04:54;;;;;;;;;;;15.30;87.50;;;;;;5017190;28;20370;-67
2022/04/24 12:07:20;;;;;;;;;;;15.40;87.50;;;;;;5015804;28;19913;-68
2022/04/24 12:09:56;;;;;;;;;;;15.30;87.30;;;;;;5017373;28;19924;-68
2022/04/24 12:12:21;;;;;;;;;;;15.20;87.60;;;;;;5013237;28;19964;-68
2022/04/24 12:14:53;;;;;;;;;;;15.20;88.00;;;;;;5009876;28;19921;-69
2022/04/24 12:17:19;;;;;;;;;;;15.20;88.00;;;;;;5013744;28;20003;-68
2022/04/24 12:19:51;;;;;;;;;;;15.20;88.10;;;;;;5014316;28;20056;-68
2022/04/24 12:22:24;;;;;;;;;;;15.20;87.10;;;;;;5014863;28;19929;-68
2022/04/24 12:24:50;;;;;;;;;;;15.40;85.70;;;;;;5016629;28;19933;-68
2022/04/24 12:27:16;;;;;;;;;;;15.50;85.40;;;;;;5019606;28;19922;-68
2022/04/24 12:29:46;;;;;;;;;;;15.60;85.80;;;;;;5019259;28;19958;-68
2022/04/24 12:32:14;;;;;;;;;;;15.80;85.00;;;;;;5017916;28;20481;-69
2022/04/24 12:34:40;;;;;;;;;;;16.10;83.30;;;;;;5018278;28;19924;-68
2022/04/24 12:37:06;;;;;;;;;;;16.20;81.70;;;;;;5020604;28;20007;-68
2022/04/24 12:39:32;;;;;;;;;;;16.20;81.10;;;;;;5015771;28;20337;-69
2022/04/24 12:41:58;;;;;;;;;;;16.10;81.20;;;;;;5017733;28;19943;-69
2022/04/24 12:44:24;;;;;;;;;;;16.20;81.70;;;;;;5016884;28;19924;-70
2022/04/24 12:46:50;;;;;;;;;;;16.10;80.30;;;;;;5018270;28;20306;-69
2022/04/24 12:49:29;;;;;;;;;;;16.00;80.80;;;;;;5018248;28;19920;-68
2022/04/24 12:51:54;;;;;;;;;;;15.90;80.30;;;;;;5020243;28;19910;-68
2022/04/24 12:54:20;;;;;;;;;;;15.90;80.60;;;;;;5017141;28;20290;-68
2022/04/24 12:56:45;;;;;;;;;;;15.90;80.80;;;;;;5018253;28;20386;-68
2022/04/24 12:59:11;;;;;;;;;;;15.80;80.40;;;;;;5016075;28;20435;-68
2022/04/24 13:01:37;;;;;;;;;;;15.70;80.70;;;;;;5018098;28;19917;-68
2022/04/24 13:04:04;;;;;;;;;;;15.70;81.40;;;;;;5016175;28;19917;-68
2022/04/24 13:06:30;;;;;;;;;;;15.80;81.50;;;;;;5017796;28;20011;-70
2022/04/24 13:08:55;;;;;;;;;;;15.80;80.80;;;;;;5014603;28;20421;-67
2022/04/24 13:11:23;;;;;;;;;;;15.70;80.80;;;;;;5017774;28;19932;-67
2022/04/24 13:13:52;;;;;;;;;;;15.70;79.70;;;;;;4984200;28;19918;-68
2022/04/24 13:19:24;;;;;;;;;;;15.80;80.10;;;;;;4939558;29;21154;-67
2022/04/24 13:21:49;;;;;;;;;;;15.80;79.30;;;;;;4939525;29;19915;-67
2022/04/24 13:24:15;;;;;;;;;;;15.60;80.00;;;;;;4976734;28;19913;-69
2022/04/24 13:26:40;;;;;;;;;;;15.60;81.00;;;;;;5020292;28;19909;-67
2022/04/24 13:29:06;;;;;;;;;;;15.60;81.50;;;;;;5019917;28;19921;-67
2022/04/24 13:31:31;;;;;;;;;;;15.60;81.20;;;;;;5019531;28;19925;-67
2022/04/24 13:33:57;;;;;;;;;;;15.50;81.50;;;;;;5020099;28;19944;-67
2022/04/24 13:36:23;;;;;;;;;;;15.50;81.50;;;;;;5020429;28;19913;-67
2022/04/24 13:38:49;;;;;;;;;;;15.50;81.70;;;;;;5019045;28;20005;-67
2022/04/24 13:41:14;;;;;;;;;;;15.40;81.80;;;;;;5020471;28;19997;-67
2022/04/24 13:43:40;;;;;;;;;;;15.40;82.00;;;;;;5020447;28;20396;-67
2022/04/24 13:46:06;;;;;;;;;;;15.50;82.10;;;;;;5019081;28;19913;-67
2022/04/24 13:48:32;;;;;;;;;;;15.60;81.60;;;;;;5019810;28;19920;-67
2022/04/24 13:50:58;;;;;;;;;;;15.60;80.90;;;;;;5020591;28;19909;-67
2022/04/24 13:53:24;;;;;;;;;;;15.60;79.90;;;;;;5019932;28;19971;-67
2022/04/24 13:55:50;;;;;;;;;;;15.50;80.60;;;;;;5020032;28;19909;-68
2022/04/24 13:58:15;;;;;;;;;;;15.40;80.00;;;;;;5019964;28;20347;-68
2022/04/24 14:00:42;;;;;;;;;;;15.40;79.50;;;;;;5019520;28;19917;-68
2022/04/24 14:03:08;;;;;;;;;;;15.40;80.00;;;;;;5013105;28;19921;-68
2022/04/24 14:05:34;;;;;;;;;;;15.40;79.60;;;;;;5001231;28;19918;-67
2022/04/24 14:08:00;;;;;;;;;;;15.40;80.20;;;;;;5017621;28;20035;-67
2022/04/24 14:10:25;;;;;;;;;;;15.50;79.90;;;;;;5019675;28;19920;-67
2022/04/24 14:12:51;;;;;;;;;;;15.50;80.30;;;;;;5016884;28;20381;-67
2022/04/24 14:15:25;;;;;;;;;;;15.50;80.20;;;;;;5017320;28;19924;-68
2022/04/24 14:17:55;;;;;;;;;;;15.50;78.80;;;;;;5015168;28;19960;-67
2022/04/24 14:20:21;;;;;;;;;;;15.40;79.40;;;;;;5018575;28;19917;-68
2022/04/24 14:22:46;;;;;;;;;;;15.40;79.60;;;;;;5018121;28;20447;-67
2022/04/24 14:25:12;;;;;;;;;;;15.40;79.30;;;;;;5019322;28;19913;-68
2022/04/24 14:27:37;;;;;;;;;;;15.40;79.20;;;;;;5019211;28;19917;-67